WAT1824 PAOM-PAOT
Flight info
| Callsign | WAT1824 |
|---|---|
| Flight time | 0h 33m |
| Altitude | 25000 |
| Route | OME J123 OTZ |
| Aircraft | B737/M-SDE2E3FGHIRWXY/LB1 |
Departure
| Time | 2026-04-29 13:43 |
|---|---|
| Airport | Nome Airport (PAOM) |
Arrival
| Time | 2026-04-29 14:16 |
|---|---|
| Airport | Ralph Wien Memorial Airport (PAOT) |
| Time | Latitude | Longitude | Altitude | Speed | Heading |
|---|---|---|---|---|---|
| 2026-04-29 13:32 | 64.51102 | -165.43319 | 34 ft | 0 kts | 9° |
| 2026-04-29 13:37 | 64.51084 | -165.43326 | 34 ft | 4 kts | 19° |
| 2026-04-29 13:37 | 64.51079 | -165.43328 | 34 ft | 4 kts | 111° |
| 2026-04-29 13:38 | 64.51089 | -165.43383 | 33 ft | 4 kts | 115° |
| 2026-04-29 13:38 | 64.51094 | -165.43406 | 34 ft | 0 kts | 115° |
| 2026-04-29 13:38 | 64.51094 | -165.43405 | 34 ft | 0 kts | 115° |
| 2026-04-29 13:39 | 64.51093 | -165.43400 | 33 ft | 2 kts | 114° |
| 2026-04-29 13:40 | 64.51077 | -165.43317 | 33 ft | 10 kts | 113° |
| 2026-04-29 13:40 | 64.51031 | -165.43139 | 30 ft | 14 kts | 158° |
| 2026-04-29 13:40 | 64.50934 | -165.43199 | 29 ft | 15 kts | 202° |
| 2026-04-29 13:40 | 64.50907 | -165.43450 | 30 ft | 20 kts | 285° |
| 2026-04-29 13:41 | 64.50953 | -165.43760 | 33 ft | 22 kts | 289° |
| 2026-04-29 13:41 | 64.51006 | -165.44113 | 37 ft | 25 kts | 292° |
| 2026-04-29 13:41 | 64.51036 | -165.44498 | 37 ft | 25 kts | 240° |
| 2026-04-29 13:41 | 64.50911 | -165.44766 | 31 ft | 22 kts | 220° |
| 2026-04-29 13:42 | 64.50848 | -165.44869 | 33 ft | 1 kts | 270° |
| 2026-04-29 13:42 | 64.50870 | -165.44855 | 31 ft | 18 kts | 29° |
| 2026-04-29 13:42 | 64.51248 | -165.44089 | 39 ft | 122 kts | 42° |
| 2026-04-29 13:42 | 64.52024 | -165.42419 | 493 ft | 170 kts | 56° |
| 2026-04-29 13:43 | 64.52054 | -165.39707 | 1734 ft | 182 kts | 111° |
| 2026-04-29 13:43 | 64.51558 | -165.37015 | 2815 ft | 190 kts | 116° |
| 2026-04-29 13:43 | 64.50838 | -165.34183 | 3398 ft | 213 kts | 121° |
| 2026-04-29 13:43 | 64.50057 | -165.31079 | 4063 ft | 234 kts | 118° |
| 2026-04-29 13:44 | 64.49666 | -165.27352 | 4978 ft | 249 kts | 85° |
| 2026-04-29 13:44 | 64.50393 | -165.23679 | 6269 ft | 260 kts | 51° |
| 2026-04-29 13:44 | 64.51914 | -165.21321 | 7405 ft | 273 kts | 30° |
| 2026-04-29 13:44 | 64.53675 | -165.19476 | 8499 ft | 281 kts | 27° |
| 2026-04-29 13:45 | 64.55507 | -165.17686 | 9625 ft | 288 kts | 26° |
| 2026-04-29 13:45 | 64.57381 | -165.15865 | 10588 ft | 298 kts | 26° |
| 2026-04-29 13:45 | 64.59366 | -165.13908 | 10962 ft | 329 kts | 26° |
| 2026-04-29 13:45 | 64.61532 | -165.11744 | 11689 ft | 343 kts | 26° |
| 2026-04-29 13:46 | 64.63744 | -165.09516 | 12746 ft | 348 kts | 26° |
| 2026-04-29 13:46 | 64.65993 | -165.07230 | 13847 ft | 353 kts | 26° |
| 2026-04-29 13:46 | 64.68233 | -165.04935 | 14790 ft | 358 kts | 26° |
| 2026-04-29 13:46 | 64.70535 | -165.02562 | 15761 ft | 363 kts | 26° |
| 2026-04-29 13:47 | 64.72864 | -165.00150 | 16730 ft | 368 kts | 26° |
| 2026-04-29 13:47 | 64.75222 | -164.97697 | 17694 ft | 374 kts | 26° |
| 2026-04-29 13:47 | 64.77613 | -164.95202 | 18572 ft | 379 kts | 26° |
| 2026-04-29 13:47 | 64.80045 | -164.92659 | 19407 ft | 384 kts | 26° |
| 2026-04-29 13:48 | 64.82500 | -164.90084 | 20257 ft | 389 kts | 26° |
| 2026-04-29 13:48 | 64.84958 | -164.87500 | 21064 ft | 394 kts | 26° |
| 2026-04-29 13:48 | 64.87481 | -164.84844 | 21898 ft | 398 kts | 27° |
| 2026-04-29 13:48 | 64.90025 | -164.82160 | 22696 ft | 403 kts | 27° |
| 2026-04-29 13:49 | 64.92609 | -164.79426 | 23505 ft | 407 kts | 27° |
| 2026-04-29 13:49 | 64.95187 | -164.76696 | 24299 ft | 406 kts | 27° |
| 2026-04-29 13:49 | 64.97780 | -164.73944 | 24705 ft | 406 kts | 27° |
| 2026-04-29 13:49 | 65.00323 | -164.71240 | 24838 ft | 403 kts | 27° |
| 2026-04-29 13:50 | 65.02876 | -164.68520 | 24844 ft | 402 kts | 27° |
| 2026-04-29 13:50 | 65.05445 | -164.65775 | 24860 ft | 403 kts | 27° |
| 2026-04-29 13:50 | 65.07976 | -164.63063 | 24863 ft | 404 kts | 27° |
| 2026-04-29 13:50 | 65.10548 | -164.60302 | 24864 ft | 404 kts | 27° |
| 2026-04-29 13:51 | 65.13120 | -164.57535 | 24862 ft | 404 kts | 27° |
| 2026-04-29 13:51 | 65.15687 | -164.54768 | 24848 ft | 404 kts | 27° |
| 2026-04-29 13:51 | 65.18229 | -164.52023 | 24853 ft | 404 kts | 27° |
| 2026-04-29 13:51 | 65.20801 | -164.49238 | 24864 ft | 404 kts | 27° |
| 2026-04-29 13:52 | 65.23363 | -164.46458 | 24858 ft | 404 kts | 27° |
| 2026-04-29 13:52 | 65.25896 | -164.43705 | 24858 ft | 403 kts | 28° |
| 2026-04-29 13:52 | 65.28466 | -164.40906 | 24861 ft | 403 kts | 28° |
| 2026-04-29 13:52 | 65.30995 | -164.38145 | 24860 ft | 403 kts | 28° |
| 2026-04-29 13:53 | 65.33554 | -164.35344 | 24865 ft | 403 kts | 28° |
| 2026-04-29 13:53 | 65.36099 | -164.32554 | 24866 ft | 402 kts | 28° |
| 2026-04-29 13:53 | 65.38654 | -164.29746 | 24867 ft | 402 kts | 28° |
| 2026-04-29 13:53 | 65.41169 | -164.26977 | 24866 ft | 402 kts | 28° |
| 2026-04-29 13:54 | 65.43719 | -164.24162 | 24843 ft | 402 kts | 28° |
| 2026-04-29 13:54 | 65.46275 | -164.21336 | 24862 ft | 402 kts | 28° |
| 2026-04-29 13:54 | 65.48818 | -164.18518 | 24864 ft | 402 kts | 28° |
| 2026-04-29 13:54 | 65.51333 | -164.15724 | 24868 ft | 402 kts | 28° |
| 2026-04-29 13:55 | 65.53887 | -164.12881 | 24868 ft | 402 kts | 28° |
| 2026-04-29 13:55 | 65.56440 | -164.10033 | 24872 ft | 403 kts | 28° |
| 2026-04-29 13:55 | 65.58981 | -164.07193 | 24871 ft | 403 kts | 28° |
| 2026-04-29 13:55 | 65.61500 | -164.04370 | 24869 ft | 403 kts | 28° |
| 2026-04-29 13:56 | 65.64044 | -164.01514 | 24874 ft | 403 kts | 28° |
| 2026-04-29 13:56 | 65.66596 | -163.98643 | 24873 ft | 403 kts | 28° |
| 2026-04-29 13:56 | 65.69140 | -163.95774 | 24879 ft | 403 kts | 28° |
| 2026-04-29 13:56 | 65.71685 | -163.92898 | 24873 ft | 403 kts | 28° |
| 2026-04-29 13:57 | 65.74236 | -163.90009 | 24858 ft | 403 kts | 28° |
| 2026-04-29 13:57 | 65.76770 | -163.87134 | 24866 ft | 403 kts | 28° |
| 2026-04-29 13:57 | 65.79288 | -163.84270 | 24869 ft | 403 kts | 28° |
| 2026-04-29 13:57 | 65.80969 | -163.82353 | 24873 ft | 403 kts | 28° |
| 2026-04-29 13:58 | 65.84367 | -163.78473 | 24774 ft | 400 kts | 28° |
| 2026-04-29 13:58 | 65.86897 | -163.75578 | 24349 ft | 398 kts | 29° |
| 2026-04-29 13:58 | 65.89379 | -163.72732 | 23855 ft | 395 kts | 29° |
| 2026-04-29 13:58 | 65.91858 | -163.69885 | 23316 ft | 391 kts | 29° |
| 2026-04-29 13:59 | 65.94312 | -163.67058 | 22719 ft | 387 kts | 29° |
| 2026-04-29 13:59 | 65.95926 | -163.65195 | 22372 ft | 383 kts | 29° |
| 2026-04-29 13:59 | 65.99105 | -163.61519 | 21674 ft | 377 kts | 29° |
| 2026-04-29 13:59 | 66.01467 | -163.58781 | 21161 ft | 373 kts | 29° |
| 2026-04-29 14:00 | 66.03020 | -163.56977 | 20796 ft | 370 kts | 29° |
| 2026-04-29 14:00 | 66.06094 | -163.53397 | 20140 ft | 365 kts | 29° |
| 2026-04-29 14:00 | 66.07615 | -163.51623 | 19795 ft | 363 kts | 28° |
| 2026-04-29 14:00 | 66.09888 | -163.48966 | 19292 ft | 360 kts | 28° |
| 2026-04-29 14:01 | 66.12145 | -163.46322 | 18795 ft | 357 kts | 28° |
| 2026-04-29 14:01 | 66.14395 | -163.43683 | 18297 ft | 355 kts | 28° |
| 2026-04-29 14:01 | 66.16622 | -163.41064 | 17730 ft | 352 kts | 28° |
| 2026-04-29 14:01 | 66.18799 | -163.38500 | 17226 ft | 349 kts | 28° |
| 2026-04-29 14:02 | 66.20996 | -163.35909 | 16729 ft | 345 kts | 28° |
| 2026-04-29 14:02 | 66.23152 | -163.33362 | 16238 ft | 341 kts | 28° |
| 2026-04-29 14:02 | 66.25262 | -163.30863 | 15817 ft | 336 kts | 28° |
| 2026-04-29 14:02 | 66.27369 | -163.28364 | 15339 ft | 333 kts | 28° |
| 2026-04-29 14:03 | 66.29459 | -163.25879 | 14851 ft | 331 kts | 28° |
| 2026-04-29 14:03 | 66.31530 | -163.23411 | 14374 ft | 329 kts | 28° |
| 2026-04-29 14:03 | 66.33583 | -163.20962 | 13886 ft | 326 kts | 28° |
| 2026-04-29 14:03 | 66.35605 | -163.18545 | 13393 ft | 324 kts | 28° |
| 2026-04-29 14:04 | 66.37631 | -163.16118 | 12892 ft | 321 kts | 28° |
| 2026-04-29 14:04 | 66.39642 | -163.13705 | 12400 ft | 319 kts | 28° |
| 2026-04-29 14:04 | 66.41638 | -163.11307 | 11921 ft | 316 kts | 28° |
| 2026-04-29 14:04 | 66.43594 | -163.08953 | 11454 ft | 314 kts | 28° |
| 2026-04-29 14:05 | 66.45564 | -163.06578 | 10980 ft | 313 kts | 28° |
| 2026-04-29 14:05 | 66.47525 | -163.04209 | 10505 ft | 311 kts | 28° |
| 2026-04-29 14:05 | 66.49459 | -163.01869 | 10243 ft | 303 kts | 28° |
| 2026-04-29 14:05 | 66.51303 | -162.99637 | 10102 ft | 291 kts | 28° |
| 2026-04-29 14:06 | 66.53104 | -162.97455 | 9968 ft | 280 kts | 29° |
| 2026-04-29 14:06 | 66.54843 | -162.95338 | 9619 ft | 277 kts | 29° |
| 2026-04-29 14:06 | 66.56556 | -162.93250 | 9282 ft | 274 kts | 29° |
| 2026-04-29 14:06 | 66.58275 | -162.91150 | 8925 ft | 272 kts | 28° |
| 2026-04-29 14:07 | 66.59973 | -162.89073 | 8577 ft | 270 kts | 28° |
| 2026-04-29 14:07 | 66.61660 | -162.87011 | 8223 ft | 268 kts | 29° |
| 2026-04-29 14:07 | 66.63330 | -162.84965 | 7902 ft | 266 kts | 29° |
| 2026-04-29 14:07 | 66.64971 | -162.82951 | 7568 ft | 264 kts | 29° |
| 2026-04-29 14:08 | 66.66625 | -162.80918 | 7233 ft | 263 kts | 29° |
| 2026-04-29 14:08 | 66.68308 | -162.79117 | 6881 ft | 265 kts | 14° |
| 2026-04-29 14:08 | 66.70125 | -162.79227 | 6554 ft | 266 kts | 343° |
| 2026-04-29 14:08 | 66.71722 | -162.81477 | 6239 ft | 263 kts | 316° |
| 2026-04-29 14:09 | 66.72923 | -162.84934 | 5907 ft | 259 kts | 305° |
| 2026-04-29 14:09 | 66.74043 | -162.88522 | 5575 ft | 259 kts | 310° |
| 2026-04-29 14:09 | 66.75291 | -162.91763 | 5228 ft | 259 kts | 317° |
| 2026-04-29 14:09 | 66.76679 | -162.94654 | 4911 ft | 257 kts | 324° |
| 2026-04-29 14:10 | 66.78162 | -162.97171 | 4592 ft | 256 kts | 329° |
| 2026-04-29 14:10 | 66.79724 | -162.99346 | 4272 ft | 254 kts | 335° |
| 2026-04-29 14:10 | 66.81340 | -163.01164 | 3958 ft | 253 kts | 340° |
| 2026-04-29 14:10 | 66.82974 | -163.02597 | 3637 ft | 251 kts | 345° |
| 2026-04-29 14:11 | 66.84667 | -163.03676 | 3317 ft | 249 kts | 350° |
| 2026-04-29 14:11 | 66.86358 | -163.04356 | 3141 ft | 241 kts | 355° |
| 2026-04-29 14:11 | 66.87998 | -163.04691 | 3030 ft | 231 kts | 359° |
| 2026-04-29 14:11 | 66.89581 | -163.04589 | 3019 ft | 226 kts | 9° |
| 2026-04-29 14:12 | 66.90959 | -163.03131 | 2961 ft | 208 kts | 49° |
| 2026-04-29 14:12 | 66.91562 | -163.00047 | 2957 ft | 190 kts | 89° |
| 2026-04-29 14:12 | 66.91474 | -162.96677 | 2736 ft | 193 kts | 102° |
| 2026-04-29 14:12 | 66.91233 | -162.93357 | 2495 ft | 192 kts | 105° |
| 2026-04-29 14:13 | 66.90927 | -162.90099 | 2250 ft | 183 kts | 104° |
| 2026-04-29 14:13 | 66.90693 | -162.87020 | 2003 ft | 171 kts | 103° |
| 2026-04-29 14:13 | 66.90498 | -162.84145 | 1788 ft | 158 kts | 103° |
| 2026-04-29 14:13 | 66.90319 | -162.81476 | 1593 ft | 148 kts | 103° |
| 2026-04-29 14:14 | 66.90159 | -162.79085 | 1538 ft | 128 kts | 103° |
| 2026-04-29 14:14 | 66.90013 | -162.76906 | 1355 ft | 121 kts | 103° |
| 2026-04-29 14:14 | 66.89874 | -162.74832 | 1185 ft | 117 kts | 102° |
| 2026-04-29 14:14 | 66.89738 | -162.72786 | 1049 ft | 116 kts | 102° |
| 2026-04-29 14:15 | 66.89633 | -162.70729 | 858 ft | 121 kts | 99° |
| 2026-04-29 14:15 | 66.89537 | -162.68635 | 741 ft | 117 kts | 99° |
| 2026-04-29 14:15 | 66.89413 | -162.66620 | 581 ft | 116 kts | 102° |
| 2026-04-29 14:15 | 66.89233 | -162.64605 | 384 ft | 113 kts | 102° |
| 2026-04-29 14:16 | 66.89083 | -162.62673 | 182 ft | 109 kts | 100° |
| 2026-04-29 14:16 | 66.88938 | -162.60790 | 29 ft | 106 kts | 101° |
| 2026-04-29 14:16 | 66.88815 | -162.59294 | 21 ft | 58 kts | 102° |
| 2026-04-29 14:16 | 66.88795 | -162.58856 | 23 ft | 9 kts | 77° |
| 2026-04-29 14:17 | 66.88757 | -162.58793 | 23 ft | 8 kts | 218° |
| 2026-04-29 14:17 | 66.88774 | -162.58943 | 24 ft | 12 kts | 300° |
| 2026-04-29 14:17 | 66.88812 | -162.59207 | 21 ft | 18 kts | 289° |
| 2026-04-29 14:17 | 66.88900 | -162.59440 | 20 ft | 19 kts | 327° |
| 2026-04-29 14:18 | 66.88976 | -162.59684 | 18 ft | 18 kts | 281° |
| 2026-04-29 14:18 | 66.88991 | -162.59798 | 19 ft | 0 kts | 283° |
| 2026-04-29 14:20 | 66.88994 | -162.59834 | 18 ft | 14 kts | 283° |
| 2026-04-29 14:20 | 66.89021 | -162.60063 | 17 ft | 5 kts | 324° |
| 2026-04-29 14:20 | 66.89031 | -162.60076 | 17 ft | 9 kts | 345° |
| 2026-04-29 14:21 | 66.89069 | -162.60070 | 18 ft | 8 kts | 22° |
| 2026-04-29 14:21 | 66.89068 | -162.59944 | 18 ft | 10 kts | 99° |
| 2026-04-29 14:21 | 66.89060 | -162.59911 | 21 ft | 7 kts | 76° |
| 2026-04-29 14:21 | 66.89066 | -162.59882 | 18 ft | 7 kts | 72° |
| 2026-04-29 14:22 | 66.89037 | -162.59879 | 19 ft | 1 kts | 187° |